createdAt,value
2023-04-19T00:00:57.827Z,52.92
2023-04-19T00:03:26.392Z,52.44
2023-04-19T00:05:59.574Z,52.37
2023-04-19T00:08:29.018Z,53.01
2023-04-19T00:10:56.944Z,52.76
2023-04-19T00:13:25.693Z,52.72
2023-04-19T00:15:53.726Z,52.81
2023-04-19T00:18:21.599Z,52.40
2023-04-19T00:20:50.493Z,52.79
2023-04-19T00:23:18.468Z,52.92
2023-04-19T00:25:51.662Z,52.45
2023-04-19T00:28:19.946Z,52.43
2023-04-19T00:30:47.979Z,53.06
2023-04-19T00:33:16.705Z,52.97
2023-04-19T00:35:44.703Z,53.10
2023-04-19T00:38:12.683Z,52.74
2023-04-19T00:40:41.391Z,52.73
2023-04-19T00:43:10.844Z,52.52
2023-04-19T00:45:38.924Z,52.74
2023-04-19T00:48:08.549Z,53.08
2023-04-19T00:50:36.724Z,52.81
2023-04-19T00:53:04.806Z,52.56
2023-04-19T00:55:34.003Z,52.48
2023-04-19T00:58:02.153Z,52.91
2023-04-19T01:00:31.738Z,52.85
2023-04-19T01:03:00.289Z,52.73
2023-04-19T01:05:28.620Z,52.94
2023-04-19T01:07:56.619Z,53.46
2023-04-19T01:10:25.221Z,52.91
2023-04-19T01:12:53.159Z,52.95
2023-04-19T01:15:21.428Z,53.39
2023-04-19T01:17:51.597Z,53.26
2023-04-19T01:20:19.796Z,53.04
2023-04-19T01:22:49.201Z,53.55
2023-04-19T01:25:17.762Z,53.42
2023-04-19T01:27:45.685Z,53.34
2023-04-19T01:30:14.322Z,53.49
2023-04-19T01:32:42.946Z,53.16
2023-04-19T01:35:11.423Z,53.48
2023-04-19T01:37:39.396Z,53.36
2023-04-19T01:40:10.261Z,53.18
2023-04-19T01:42:38.027Z,53.24
2023-04-19T01:45:06.883Z,53.44
2023-04-19T01:47:35.268Z,53.74
2023-04-19T01:50:03.036Z,53.98
2023-04-19T01:52:30.858Z,54.00
2023-04-19T01:54:59.019Z,53.78
2023-04-19T01:57:28.171Z,53.95
2023-04-19T01:59:55.944Z,54.18
2023-04-19T02:02:24.251Z,53.66
2023-04-19T02:04:52.031Z,53.88
2023-04-19T02:07:19.691Z,54.15
2023-04-19T02:09:47.981Z,54.42
2023-04-19T02:12:15.704Z,54.22
2023-04-19T02:14:44.746Z,54.10
2023-04-19T02:17:13.025Z,54.63
2023-04-19T02:19:40.940Z,54.42
2023-04-19T02:22:08.585Z,54.83
2023-04-19T02:24:36.789Z,54.32
2023-04-19T02:27:04.562Z,54.08
2023-04-19T02:29:32.590Z,54.79
2023-04-19T02:32:04.497Z,54.71
2023-04-19T02:34:32.415Z,54.86
2023-04-19T02:37:00.500Z,54.24
2023-04-19T02:39:29.125Z,54.51
2023-04-19T02:41:56.826Z,54.46
2023-04-19T02:44:24.525Z,54.76
2023-04-19T02:46:53.528Z,54.47
2023-04-19T02:49:22.832Z,54.95
2023-04-19T02:51:52.170Z,54.50
2023-04-19T02:54:20.506Z,54.87
2023-04-19T02:56:48.163Z,54.23
2023-04-19T02:59:15.856Z,54.92
2023-04-19T03:01:44.183Z,54.91
2023-04-19T03:04:12.623Z,54.98
2023-04-19T03:06:42.103Z,54.40
2023-04-19T03:09:10.303Z,55.04
2023-04-19T03:11:38.672Z,54.36
2023-04-19T03:14:06.508Z,55.01
2023-04-19T03:16:34.952Z,54.89
2023-04-19T03:19:02.624Z,54.69
2023-04-19T03:21:30.273Z,54.84
2023-04-19T03:23:59.911Z,54.75
2023-04-19T03:26:27.435Z,55.04
2023-04-19T03:28:55.146Z,54.72
2023-04-19T03:31:23.515Z,55.14
2023-04-19T03:33:51.680Z,54.99
2023-04-19T03:36:19.385Z,55.53
2023-04-19T03:38:47.673Z,55.38
2023-04-19T03:41:24.469Z,55.37
2023-04-19T03:43:52.757Z,55.44
2023-04-19T03:46:20.748Z,55.56
2023-04-19T03:48:49.062Z,55.82
2023-04-19T03:51:17.083Z,58.51
2023-04-19T03:53:44.819Z,56.97
2023-04-19T03:56:12.489Z,56.79
2023-04-19T03:58:42.870Z,55.92
2023-04-19T04:01:18.956Z,56.18
2023-04-19T04:03:47.536Z,56.06
2023-04-19T04:06:15.426Z,55.27
2023-04-19T04:08:43.078Z,55.14
2023-04-19T04:11:11.309Z,55.05
2023-04-19T04:13:38.970Z,55.25
2023-04-19T04:16:08.240Z,55.05
2023-04-19T04:18:36.421Z,55.18
2023-04-19T04:21:04.684Z,55.37
2023-04-19T04:23:33.806Z,55.51
2023-04-19T04:26:02.982Z,55.34
2023-04-19T04:28:31.356Z,55.84
2023-04-19T04:31:00.264Z,56.49
2023-04-19T04:33:30.400Z,56.47
2023-04-19T04:35:59.092Z,57.10
2023-04-19T04:38:27.282Z,56.70
2023-04-19T04:40:57.569Z,56.55
2023-04-19T04:43:29.064Z,56.82
2023-04-19T04:45:58.484Z,56.94
2023-04-19T04:48:26.274Z,56.90
2023-04-19T04:50:55.500Z,57.31
2023-04-19T04:53:23.756Z,57.32
2023-04-19T04:55:51.584Z,56.58
2023-04-19T04:58:20.446Z,57.18
2023-04-19T05:00:49.107Z,57.06
2023-04-19T05:03:17.045Z,57.26
2023-04-19T05:05:45.323Z,56.94
2023-04-19T05:08:15.106Z,57.38
2023-04-19T05:10:42.631Z,57.42
2023-04-19T05:13:10.472Z,57.56
2023-04-19T05:15:38.616Z,57.52
2023-04-19T05:18:06.863Z,57.65
2023-04-19T05:20:34.903Z,57.13
2023-04-19T05:23:04.057Z,57.27
2023-04-19T05:25:33.128Z,57.64
2023-04-19T05:28:00.860Z,57.67
2023-04-19T05:30:29.011Z,57.12
2023-04-19T05:32:57.967Z,57.55
2023-04-19T05:35:25.712Z,58.09
2023-04-19T05:37:53.803Z,57.34
2023-04-19T05:40:23.604Z,57.55
2023-04-19T05:42:52.934Z,58.23
2023-04-19T05:45:21.189Z,58.01
2023-04-19T05:47:48.997Z,58.42
2023-04-19T05:50:18.051Z,58.17
2023-04-19T05:52:46.244Z,57.83
2023-04-19T05:55:14.088Z,58.02
2023-04-19T05:57:41.852Z,58.08
2023-04-19T06:00:13.278Z,57.82
2023-04-19T06:02:41.215Z,57.40
2023-04-19T06:05:10.741Z,57.26
2023-04-19T06:07:43.171Z,57.00
2023-04-19T06:10:11.902Z,56.74
2023-04-19T06:12:39.620Z,57.39
2023-04-19T06:15:08.946Z,56.78
2023-04-19T06:17:38.041Z,56.92
2023-04-19T06:20:08.403Z,56.70
2023-04-19T06:22:36.374Z,56.22
2023-04-19T06:25:04.319Z,56.36
2023-04-19T06:27:32.509Z,56.44
2023-04-19T06:30:00.997Z,56.98
2023-04-19T06:32:28.735Z,56.45
2023-04-19T06:34:59.740Z,56.59
2023-04-19T06:37:27.413Z,57.25
2023-04-19T06:39:55.493Z,56.92
2023-04-19T06:42:25.843Z,56.87
2023-04-19T06:44:53.579Z,56.68
2023-04-19T06:47:21.274Z,56.58
2023-04-19T06:49:49.469Z,56.93
2023-04-19T06:52:18.594Z,57.46
2023-04-19T06:54:49.355Z,57.19
2023-04-19T06:57:17.189Z,56.64
2023-04-19T06:59:45.001Z,56.70
2023-04-19T07:02:13.323Z,57.68
2023-04-19T07:04:41.213Z,57.02
2023-04-19T07:07:09.049Z,57.33
2023-04-19T07:09:38.526Z,56.90
2023-04-19T07:12:07.222Z,56.45
2023-04-19T07:14:34.954Z,56.59
2023-04-19T07:17:03.259Z,56.48
2023-04-19T07:19:30.920Z,55.99
2023-04-19T07:21:58.598Z,55.97
2023-04-19T07:24:28.431Z,55.67
2023-04-19T07:26:57.508Z,55.46
2023-04-19T07:29:25.224Z,55.48
2023-04-19T07:31:55.843Z,55.41
2023-04-19T07:34:23.830Z,54.90
2023-04-19T07:36:51.520Z,54.99
2023-04-19T07:39:19.628Z,54.97
2023-04-19T07:41:47.408Z,54.11
2023-04-19T07:44:16.641Z,54.59
2023-04-19T07:46:45.617Z,54.48
2023-04-19T07:49:13.367Z,54.41
2023-04-19T07:51:41.357Z,53.98
2023-04-19T07:54:11.288Z,53.37
2023-04-19T07:56:39.188Z,53.63
2023-04-19T07:59:09.087Z,53.12
2023-04-19T08:01:39.277Z,52.93
2023-04-19T08:04:08.065Z,52.96
2023-04-19T08:06:37.916Z,52.70
2023-04-19T08:09:06.000Z,53.06
2023-04-19T08:11:33.692Z,52.63
2023-04-19T08:17:14.603Z,52.23
2023-04-19T08:19:22.475Z,51.80
2023-04-19T08:21:50.666Z,51.53
2023-04-19T08:24:18.513Z,51.52
2023-04-19T08:26:53.928Z,51.43
2023-04-19T08:29:22.118Z,50.83
2023-04-19T08:31:49.969Z,50.95
2023-04-19T08:34:18.193Z,50.74
2023-04-19T08:37:00.121Z,50.37
2023-04-19T08:39:33.875Z,50.83
2023-04-19T08:42:10.416Z,50.60
2023-04-19T08:45:13.204Z,50.77
2023-04-19T08:47:42.199Z,49.96
2023-04-19T08:50:31.203Z,50.12
2023-04-19T08:53:16.469Z,50.22
2023-04-19T08:58:32.966Z,48.77
2023-04-19T09:01:17.097Z,48.98
2023-04-19T09:03:59.419Z,48.79
2023-04-19T09:06:37.913Z,48.47
2023-04-19T09:09:33.418Z,48.25
2023-04-19T09:12:05.761Z,48.22
2023-04-19T09:14:33.454Z,48.01
2023-04-19T09:17:18.087Z,48.54
2023-04-19T09:19:49.706Z,47.68
2023-04-19T09:22:17.998Z,47.03
2023-04-19T09:27:27.016Z,46.68
2023-04-19T09:29:55.606Z,46.66
2023-04-19T09:32:23.461Z,46.38
2023-04-19T09:34:56.511Z,46.05
2023-04-19T09:37:39.089Z,46.82
2023-04-19T09:40:28.073Z,46.47
2023-04-19T09:45:30.538Z,47.15
2023-04-19T09:48:03.593Z,46.32
2023-04-19T09:50:32.269Z,46.69
2023-04-19T09:53:01.952Z,47.02
2023-04-19T09:55:41.298Z,47.18
2023-04-19T09:58:17.254Z,46.06
2023-04-19T10:00:50.212Z,46.21
2023-04-19T10:03:21.969Z,46.11
2023-04-19T10:05:51.173Z,46.57
2023-04-19T10:08:20.015Z,46.83
2023-04-19T10:10:55.032Z,46.51
2023-04-19T10:13:26.643Z,46.03
2023-04-19T10:15:59.318Z,45.99
2023-04-19T10:18:36.662Z,46.71
2023-04-19T10:21:09.394Z,46.64
2023-04-19T10:23:38.530Z,45.78
2023-04-19T10:26:07.902Z,44.75
2023-04-19T10:28:38.258Z,45.13
2023-04-19T10:31:06.762Z,45.63
2023-04-19T10:33:38.500Z,44.90
2023-04-19T10:36:10.455Z,45.07
2023-04-19T10:38:40.786Z,45.03
2023-04-19T10:41:16.789Z,44.57
2023-04-19T10:43:48.050Z,42.79
2023-04-19T10:46:18.470Z,43.53
2023-04-19T10:48:55.047Z,43.75
2023-04-19T10:51:25.106Z,43.38
2023-04-19T10:53:55.651Z,43.51
2023-04-19T10:57:02.158Z,43.41
2023-04-19T10:59:34.484Z,41.97
2023-04-19T11:02:03.756Z,41.35
2023-04-19T11:05:02.096Z,42.89
2023-04-19T11:07:29.898Z,41.93
2023-04-19T11:09:57.581Z,42.54
2023-04-19T11:12:27.309Z,41.33
2023-04-19T11:14:57.414Z,42.06
2023-04-19T11:17:28.258Z,42.99
2023-04-19T11:19:57.816Z,42.14
2023-04-19T11:22:33.679Z,42.58
2023-04-19T11:25:08.785Z,43.53
2023-04-19T11:27:38.952Z,43.07
2023-04-19T11:30:08.485Z,43.42
2023-04-19T11:32:36.311Z,43.01
2023-04-19T11:35:10.120Z,41.96
2023-04-19T11:37:39.547Z,42.13
2023-04-19T11:40:08.829Z,42.87
2023-04-19T11:42:38.456Z,41.81
2023-04-19T11:45:13.101Z,42.33
2023-04-19T11:47:50.750Z,41.11
2023-04-19T11:50:38.711Z,41.91
2023-04-19T11:53:17.472Z,41.63
2023-04-19T11:55:51.061Z,41.30
2023-04-19T11:58:29.681Z,39.93
2023-04-19T12:00:58.420Z,40.79
2023-04-19T12:03:26.991Z,40.74
2023-04-19T12:05:56.963Z,40.13
2023-04-19T12:08:32.432Z,40.53
2023-04-19T12:11:01.307Z,40.20
2023-04-19T12:13:31.487Z,40.02
2023-04-19T12:15:59.808Z,39.70
2023-04-19T12:18:28.348Z,39.21
2023-04-19T12:20:56.397Z,39.30
2023-04-19T12:23:24.339Z,38.13
2023-04-19T12:25:52.458Z,38.56
2023-04-19T12:28:20.473Z,37.50
2023-04-19T12:30:50.093Z,37.16
2023-04-19T12:33:18.127Z,36.64
2023-04-19T12:35:46.056Z,36.74
2023-04-19T12:38:14.023Z,36.55
2023-04-19T12:40:42.183Z,36.21
2023-04-19T12:43:10.107Z,35.49
2023-04-19T12:45:38.049Z,35.59
2023-04-19T12:48:08.131Z,35.33
2023-04-19T12:50:36.206Z,34.71
2023-04-19T12:53:04.037Z,34.52
2023-04-19T12:55:32.422Z,34.93
2023-04-19T12:58:00.387Z,34.59
2023-04-19T13:00:30.155Z,32.40
2023-04-19T13:02:58.718Z,31.56
2023-04-19T13:05:28.148Z,32.92
2023-04-19T13:07:56.555Z,30.51
2023-04-19T13:10:24.775Z,31.35
2023-04-19T13:12:52.760Z,31.96
2023-04-19T13:15:20.735Z,32.32
2023-04-19T13:17:48.813Z,32.49
2023-04-19T13:20:16.881Z,31.25
2023-04-19T13:22:45.979Z,31.54
2023-04-19T13:25:14.051Z,30.42
2023-04-19T13:27:41.721Z,29.01
2023-04-19T13:30:10.525Z,28.85
2023-04-19T13:32:38.441Z,29.84
2023-04-19T13:35:07.213Z,30.65
2023-04-19T13:37:34.925Z,30.12
2023-04-19T13:40:18.138Z,30.01
2023-04-19T13:42:47.249Z,30.49
2023-04-19T13:45:15.661Z,30.28
2023-04-19T13:47:43.411Z,29.79
2023-04-19T13:50:12.827Z,29.30
2023-04-19T13:52:41.039Z,30.60
2023-04-19T13:55:10.756Z,29.17
2023-04-19T13:57:38.696Z,28.67
2023-04-19T14:00:08.396Z,27.63
2023-04-19T14:02:36.872Z,28.01
2023-04-19T14:05:05.256Z,27.36
2023-04-19T14:07:34.423Z,26.84
2023-04-19T14:10:02.252Z,25.98
2023-04-19T14:12:31.300Z,26.87
2023-04-19T14:14:59.575Z,26.86
2023-04-19T14:17:27.385Z,27.01
2023-04-19T14:19:55.097Z,26.86
2023-04-19T14:22:22.782Z,26.74
2023-04-19T14:24:50.688Z,26.17
2023-04-19T14:27:19.175Z,27.04
2023-04-19T14:29:48.286Z,26.73
2023-04-19T14:32:26.028Z,26.58
2023-04-19T14:34:55.640Z,26.53
2023-04-19T14:37:24.254Z,25.75
2023-04-19T14:39:52.578Z,26.65
2023-04-19T14:42:22.854Z,25.45
2023-04-19T14:44:53.249Z,25.79
2023-04-19T14:47:22.363Z,26.34
2023-04-19T14:49:50.537Z,24.43
2023-04-19T14:52:18.388Z,23.68
2023-04-19T14:54:46.607Z,25.34
2023-04-19T14:57:14.586Z,24.97
2023-04-19T14:59:42.269Z,25.57
2023-04-19T15:02:13.873Z,25.94
2023-04-19T15:04:42.313Z,25.92
2023-04-19T15:07:11.409Z,26.52
2023-04-19T15:09:40.349Z,25.77
2023-04-19T15:12:08.471Z,26.71
2023-04-19T15:14:36.437Z,26.71
2023-04-19T15:17:04.978Z,26.55
2023-04-19T15:19:34.110Z,25.53
2023-04-19T15:22:03.871Z,25.88
2023-04-19T15:24:32.326Z,26.23
2023-04-19T15:27:00.209Z,25.95
2023-04-19T15:29:28.022Z,26.07
2023-04-19T15:31:55.985Z,26.01
2023-04-19T15:34:25.295Z,25.30
2023-04-19T15:36:54.474Z,25.02
2023-04-19T15:39:22.780Z,24.81
2023-04-19T15:41:50.541Z,25.18
2023-04-19T15:44:18.402Z,24.49
2023-04-19T15:46:46.683Z,25.01
2023-04-19T15:49:14.699Z,24.55
2023-04-19T15:51:42.693Z,25.30
2023-04-19T15:54:12.258Z,24.97
2023-04-19T15:56:39.766Z,24.93
2023-04-19T15:59:07.502Z,24.63
2023-04-19T16:01:36.973Z,25.06
2023-04-19T16:04:04.999Z,24.91
2023-04-19T16:06:32.886Z,24.34
2023-04-19T16:09:00.802Z,25.16
2023-04-19T16:11:30.544Z,25.19
2023-04-19T16:13:58.218Z,25.61
2023-04-19T16:16:26.817Z,25.20
2023-04-19T16:18:54.546Z,24.87
2023-04-19T16:21:22.220Z,24.55
2023-04-19T16:23:50.103Z,25.02
2023-04-19T16:26:17.826Z,24.65
2023-04-19T16:28:46.854Z,24.96
2023-04-19T16:31:14.808Z,24.54
2023-04-19T16:33:42.493Z,24.70
2023-04-19T16:36:10.271Z,24.19
2023-04-19T16:38:38.149Z,23.97
2023-04-19T16:41:06.022Z,24.17
2023-04-19T16:43:33.823Z,24.30
2023-04-19T16:46:03.166Z,24.63
2023-04-19T16:48:30.811Z,24.72
2023-04-19T16:50:58.477Z,24.70
2023-04-19T16:53:26.393Z,24.49
2023-04-19T16:55:55.809Z,24.89
2023-04-19T16:58:24.619Z,25.22
2023-04-19T17:00:52.495Z,25.04
2023-04-19T17:03:21.915Z,25.18
2023-04-19T17:05:49.595Z,25.19
2023-04-19T17:08:17.459Z,25.37
2023-04-19T17:10:45.103Z,25.59
2023-04-19T17:13:12.767Z,26.07
2023-04-19T17:15:40.939Z,25.83
2023-04-19T17:18:08.805Z,25.30
2023-04-19T17:20:37.898Z,25.94
2023-04-19T17:23:05.872Z,25.94
2023-04-19T17:25:33.579Z,25.89
2023-04-19T17:28:01.415Z,26.03
2023-04-19T17:30:29.459Z,25.93
2023-04-19T17:32:57.378Z,25.76
2023-04-19T17:35:26.090Z,26.11
2023-04-19T17:37:55.594Z,26.17
2023-04-19T17:40:23.328Z,26.27
2023-04-19T17:42:51.006Z,25.95
2023-04-19T17:45:19.169Z,26.47
2023-04-19T17:47:46.875Z,26.17
2023-04-19T17:50:15.114Z,26.52
2023-04-19T17:52:43.396Z,26.77
2023-04-19T17:55:12.828Z,26.78
2023-04-19T17:57:40.517Z,26.67
2023-04-19T18:00:12.329Z,27.10
2023-04-19T18:02:40.476Z,27.24
2023-04-19T18:05:08.935Z,27.59
2023-04-19T18:07:37.891Z,27.80
2023-04-19T18:10:06.575Z,27.86
2023-04-19T18:12:35.704Z,28.36
2023-04-19T18:15:04.505Z,27.76
2023-04-19T18:17:32.234Z,28.26
2023-04-19T18:19:59.953Z,28.10
2023-04-19T18:22:28.517Z,28.07
2023-04-19T18:24:56.266Z,28.19
2023-04-19T18:27:23.984Z,28.28
2023-04-19T18:29:53.858Z,28.73
2023-04-19T18:32:23.430Z,29.24
2023-04-19T18:34:51.351Z,28.67
2023-04-19T18:37:19.294Z,29.10
2023-04-19T18:39:47.215Z,28.79
2023-04-19T18:42:15.123Z,29.29
2023-04-19T18:44:53.703Z,29.65
2023-04-19T18:47:23.542Z,29.84
2023-04-19T18:50:02.766Z,29.56
2023-04-19T18:52:34.508Z,29.94
2023-04-19T18:55:02.774Z,29.71
2023-04-19T18:57:34.640Z,30.29
2023-04-19T19:00:06.338Z,29.86
2023-04-19T19:02:36.991Z,30.11
2023-04-19T19:05:08.219Z,30.60
2023-04-19T19:07:37.782Z,30.53
2023-04-19T19:10:19.062Z,30.47
2023-04-19T19:12:49.616Z,30.38
2023-04-19T19:15:18.251Z,30.98
2023-04-19T19:17:49.752Z,30.67
2023-04-19T19:20:18.613Z,30.83
2023-04-19T19:22:46.496Z,30.53
2023-04-19T19:25:14.322Z,30.96
2023-04-19T19:28:02.351Z,30.59
2023-04-19T19:30:33.556Z,30.91
2023-04-19T19:33:05.183Z,30.68
2023-04-19T19:35:33.574Z,31.51
2023-04-19T19:38:01.294Z,31.39
2023-04-19T19:40:32.371Z,31.20
2023-04-19T19:43:00.842Z,31.17
2023-04-19T19:45:29.848Z,31.21
2023-04-19T19:47:59.186Z,31.64
2023-04-19T19:53:01.160Z,31.54
2023-04-19T19:55:29.937Z,32.21
2023-04-19T20:03:00.045Z,32.03
2023-04-19T20:05:30.364Z,31.76
2023-04-19T20:08:08.413Z,32.65
2023-04-19T20:10:38.694Z,32.04
2023-04-19T20:13:06.910Z,32.11
2023-04-19T20:15:35.083Z,31.62
2023-04-19T20:18:03.826Z,31.97
2023-04-19T20:20:33.174Z,32.09
2023-04-19T20:23:00.888Z,32.36
2023-04-19T20:25:28.818Z,32.26
2023-04-19T20:27:56.481Z,32.11
2023-04-19T20:30:24.286Z,32.33
2023-04-19T20:32:52.017Z,31.89
2023-04-19T20:35:19.763Z,32.28
2023-04-19T20:37:48.826Z,31.72
2023-04-19T20:40:17.878Z,30.86
2023-04-19T20:42:45.666Z,30.98
2023-04-19T20:45:14.266Z,30.93
2023-04-19T20:47:43.000Z,31.40
2023-04-19T20:50:11.669Z,31.30
2023-04-19T20:52:39.473Z,31.13
2023-04-19T20:55:09.870Z,30.14
2023-04-19T20:57:37.535Z,30.84
2023-04-19T21:00:08.476Z,30.56
2023-04-19T21:02:36.452Z,30.69
2023-04-19T21:05:04.338Z,30.18
2023-04-19T21:07:31.979Z,30.00
2023-04-19T21:09:59.832Z,30.15
2023-04-19T21:12:28.878Z,30.62
2023-04-19T21:14:56.617Z,30.33
2023-04-19T21:17:24.515Z,29.58
2023-04-19T21:19:52.321Z,30.44
2023-04-19T21:22:20.036Z,30.11
2023-04-19T21:24:48.257Z,29.70
2023-04-19T21:27:15.975Z,29.95
2023-04-19T21:29:45.004Z,29.99
2023-04-19T21:32:13.256Z,29.50
2023-04-19T21:34:41.254Z,30.35
2023-04-19T21:37:08.909Z,30.35
2023-04-19T21:39:37.184Z,30.29
2023-04-19T21:42:05.044Z,30.03
2023-04-19T21:44:34.026Z,29.81
2023-04-19T21:47:03.649Z,29.90
2023-04-19T21:49:31.399Z,30.49
2023-04-19T21:51:59.087Z,30.09
2023-04-19T21:54:34.084Z,29.96
2023-04-19T21:57:02.586Z,30.14
2023-04-19T21:59:31.358Z,30.29
2023-04-19T22:01:59.804Z,30.45
2023-04-19T22:04:30.738Z,29.72
2023-04-19T22:07:02.719Z,29.97
2023-04-19T22:09:31.171Z,30.32
2023-04-19T22:11:59.979Z,30.34
2023-04-19T22:14:28.200Z,30.07
2023-04-19T22:16:56.576Z,30.42
2023-04-19T22:19:24.844Z,30.33
2023-04-19T22:21:55.726Z,30.56
2023-04-19T22:24:23.607Z,30.43
2023-04-19T22:26:53.000Z,30.50
2023-04-19T22:29:21.347Z,30.77
2023-04-19T22:31:49.159Z,31.07
2023-04-19T22:34:16.892Z,30.55
2023-04-19T22:36:45.131Z,31.01
2023-04-19T22:39:14.171Z,31.40
2023-04-19T22:41:41.821Z,31.10
2023-04-19T22:44:09.788Z,31.54
2023-04-19T22:46:37.692Z,31.06
2023-04-19T22:49:05.412Z,31.01
2023-04-19T22:51:34.511Z,31.44
2023-04-19T22:54:03.336Z,31.71
2023-04-19T22:56:32.398Z,31.32
2023-04-19T22:59:00.962Z,31.77
2023-04-19T23:01:28.703Z,31.27
2023-04-19T23:03:56.374Z,31.97
2023-04-19T23:06:25.074Z,32.17
2023-04-19T23:08:53.232Z,31.54
2023-04-19T23:11:24.753Z,31.84
2023-04-19T23:13:54.384Z,32.13
2023-04-19T23:16:24.138Z,32.24
2023-04-19T23:18:51.841Z,32.10
2023-04-19T23:21:20.070Z,32.30
2023-04-19T23:23:47.812Z,32.00
2023-04-19T23:26:15.577Z,32.09
2023-04-19T23:28:43.758Z,32.14
2023-04-19T23:31:12.813Z,32.65
2023-04-19T23:33:40.716Z,32.42
2023-04-19T23:36:09.265Z,32.60
2023-04-19T23:38:36.930Z,32.96
2023-04-19T23:41:04.649Z,32.70
2023-04-19T23:43:32.867Z,33.01
2023-04-19T23:46:00.633Z,33.27
2023-04-19T23:48:29.682Z,33.37
2023-04-19T23:50:58.038Z,33.44
2023-04-19T23:53:26.116Z,33.35
2023-04-19T23:55:53.852Z,33.45
2023-04-19T23:58:22.130Z,33.26
